MYTBM LSZS-LOWS
Flight info
| Callsign | MYTBM |
|---|---|
| Flight time | 0h 39m |
| Altitude | 19000 |
| Route | RONAG Z119 KUSAM/N0306F290 Z209 INN M726 NORIN/N0306F280 M726 KOGOL/N0305F270 N871 BADVI L725 UNKEN UNKEN2R |
| Aircraft | TBM8/L-SDFGRWY/S |
Departure
| Time | 2026-04-20 15:53 |
|---|---|
| Airport | Engadin Airport (LSZS) |
Arrival
| Time | 2026-04-20 16:32 |
|---|---|
| Airport | Salzburg Airport (LOWS) |
| Time | Latitude | Longitude | Altitude | Speed | Heading |
|---|---|---|---|---|---|
| 2026-04-20 15:42 | 46.53028 | 9.87944 | 5607 ft | 0 kts | 297° |
| 2026-04-20 15:49 | 46.53025 | 9.87931 | 5605 ft | 3 kts | 202° |
| 2026-04-20 15:50 | 46.52997 | 9.87958 | 5605 ft | 3 kts | 120° |
| 2026-04-20 15:50 | 46.52994 | 9.87966 | 5602 ft | 0 kts | 120° |
| 2026-04-20 15:50 | 46.52993 | 9.87967 | 5602 ft | 1 kts | 120° |
| 2026-04-20 15:51 | 46.52977 | 9.88009 | 5603 ft | 8 kts | 131° |
| 2026-04-20 15:51 | 46.52970 | 9.88028 | 5600 ft | 1 kts | 57° |
| 2026-04-20 15:51 | 46.52973 | 9.88032 | 5603 ft | 0 kts | 31° |
| 2026-04-20 15:51 | 46.53025 | 9.88074 | 5606 ft | 29 kts | 28° |
| 2026-04-20 15:52 | 46.53335 | 9.88324 | 5613 ft | 73 kts | 29° |
| 2026-04-20 15:52 | 46.53890 | 9.88773 | 5657 ft | 106 kts | 30° |
| 2026-04-20 15:52 | 46.54309 | 9.89139 | 5953 ft | 106 kts | 33° |
| 2026-04-20 15:53 | 46.55628 | 9.90405 | 6824 ft | 117 kts | 26° |
| 2026-04-20 15:53 | 46.56327 | 9.91059 | 7216 ft | 120 kts | 28° |
| 2026-04-20 15:53 | 46.57022 | 9.91720 | 7665 ft | 120 kts | 29° |
| 2026-04-20 15:53 | 46.57692 | 9.92461 | 8135 ft | 123 kts | 43° |
| 2026-04-20 15:54 | 46.58280 | 9.93364 | 8605 ft | 124 kts | 39° |
| 2026-04-20 15:54 | 46.58894 | 9.94263 | 9046 ft | 126 kts | 38° |
| 2026-04-20 15:54 | 46.59506 | 9.95186 | 9488 ft | 128 kts | 38° |
| 2026-04-20 15:54 | 46.60131 | 9.96132 | 9906 ft | 131 kts | 37° |
| 2026-04-20 15:55 | 46.60751 | 9.97082 | 10263 ft | 135 kts | 38° |
| 2026-04-20 15:55 | 46.61413 | 9.98099 | 10651 ft | 139 kts | 40° |
| 2026-04-20 15:55 | 46.62083 | 9.99127 | 11038 ft | 141 kts | 38° |
| 2026-04-20 15:55 | 46.62780 | 10.00176 | 11349 ft | 149 kts | 38° |
| 2026-04-20 15:56 | 46.63504 | 10.01283 | 11729 ft | 151 kts | 39° |
| 2026-04-20 15:56 | 46.64237 | 10.02394 | 12143 ft | 154 kts | 38° |
| 2026-04-20 15:56 | 46.64984 | 10.03525 | 12598 ft | 155 kts | 38° |
| 2026-04-20 15:56 | 46.65738 | 10.04671 | 13066 ft | 158 kts | 38° |
| 2026-04-20 15:57 | 46.66501 | 10.05837 | 13546 ft | 161 kts | 37° |
| 2026-04-20 15:57 | 46.67338 | 10.06969 | 13917 ft | 168 kts | 35° |
| 2026-04-20 15:57 | 46.68162 | 10.08191 | 14377 ft | 169 kts | 36° |
| 2026-04-20 15:57 | 46.69002 | 10.09402 | 14824 ft | 171 kts | 34° |
| 2026-04-20 15:58 | 46.69855 | 10.10617 | 15232 ft | 172 kts | 33° |
| 2026-04-20 15:58 | 46.70713 | 10.11842 | 15668 ft | 172 kts | 33° |
| 2026-04-20 15:58 | 46.71562 | 10.13061 | 16043 ft | 174 kts | 33° |
| 2026-04-20 15:58 | 46.72426 | 10.14288 | 16401 ft | 173 kts | 31° |
| 2026-04-20 15:59 | 46.73270 | 10.15592 | 16811 ft | 183 kts | 43° |
| 2026-04-20 15:59 | 46.73963 | 10.17176 | 17270 ft | 185 kts | 44° |
| 2026-04-20 15:59 | 46.74677 | 10.18750 | 17663 ft | 187 kts | 43° |
| 2026-04-20 15:59 | 46.75411 | 10.20337 | 17916 ft | 189 kts | 43° |
| 2026-04-20 16:00 | 46.76145 | 10.21931 | 18296 ft | 192 kts | 42° |
| 2026-04-20 16:00 | 46.76905 | 10.23595 | 18595 ft | 200 kts | 44° |
| 2026-04-20 16:00 | 46.77742 | 10.25155 | 18971 ft | 187 kts | 23° |
| 2026-04-20 16:00 | 46.78884 | 10.25916 | 19017 ft | 185 kts | 356° |
| 2026-04-20 16:01 | 46.80194 | 10.26041 | 19020 ft | 197 kts | 349° |
| 2026-04-20 16:01 | 46.81626 | 10.26124 | 19021 ft | 214 kts | 351° |
| 2026-04-20 16:01 | 46.83164 | 10.26227 | 19019 ft | 227 kts | 352° |
| 2026-04-20 16:01 | 46.84793 | 10.26334 | 19036 ft | 240 kts | 352° |
| 2026-04-20 16:02 | 46.86437 | 10.26453 | 19441 ft | 228 kts | 352° |
| 2026-04-20 16:02 | 46.87974 | 10.26559 | 19985 ft | 214 kts | 350° |
| 2026-04-20 16:02 | 46.89422 | 10.26646 | 20569 ft | 204 kts | 349° |
| 2026-04-20 16:02 | 46.90848 | 10.26716 | 20946 ft | 206 kts | 349° |
| 2026-04-20 16:03 | 46.92290 | 10.26808 | 21325 ft | 208 kts | 349° |
| 2026-04-20 16:03 | 46.93733 | 10.26906 | 21797 ft | 206 kts | 349° |
| 2026-04-20 16:03 | 46.95146 | 10.26995 | 22185 ft | 205 kts | 348° |
| 2026-04-20 16:03 | 46.96574 | 10.27088 | 22252 ft | 207 kts | 349° |
| 2026-04-20 16:04 | 46.97988 | 10.27193 | 22603 ft | 196 kts | 348° |
| 2026-04-20 16:04 | 46.99325 | 10.27286 | 23109 ft | 191 kts | 346° |
| 2026-04-20 16:04 | 47.00629 | 10.27348 | 23703 ft | 181 kts | 346° |
| 2026-04-20 16:04 | 47.01867 | 10.27428 | 24090 ft | 176 kts | 345° |
| 2026-04-20 16:05 | 47.03099 | 10.27524 | 24322 ft | 181 kts | 348° |
| 2026-04-20 16:05 | 47.04352 | 10.28320 | 24476 ft | 225 kts | 26° |
| 2026-04-20 16:05 | 47.05198 | 10.30440 | 24680 ft | 260 kts | 65° |
| 2026-04-20 16:05 | 47.05446 | 10.33131 | 24923 ft | 268 kts | 77° |
| 2026-04-20 16:06 | 47.05752 | 10.35800 | 25166 ft | 263 kts | 69° |
| 2026-04-20 16:06 | 47.06232 | 10.38381 | 25381 ft | 263 kts | 63° |
| 2026-04-20 16:06 | 47.06722 | 10.40997 | 25610 ft | 267 kts | 66° |
| 2026-04-20 16:06 | 47.07158 | 10.43655 | 25893 ft | 269 kts | 67° |
| 2026-04-20 16:07 | 47.07590 | 10.46299 | 26183 ft | 270 kts | 66° |
| 2026-04-20 16:07 | 47.08043 | 10.48974 | 26477 ft | 271 kts | 66° |
| 2026-04-20 16:07 | 47.08500 | 10.51665 | 26770 ft | 272 kts | 66° |
| 2026-04-20 16:07 | 47.08955 | 10.54372 | 27084 ft | 273 kts | 66° |
| 2026-04-20 16:08 | 47.09407 | 10.57084 | 27337 ft | 272 kts | 67° |
| 2026-04-20 16:08 | 47.09864 | 10.59798 | 27530 ft | 275 kts | 66° |
| 2026-04-20 16:08 | 47.10319 | 10.62502 | 27751 ft | 278 kts | 66° |
| 2026-04-20 16:08 | 47.11001 | 10.65064 | 28006 ft | 257 kts | 39° |
| 2026-04-20 16:09 | 47.12252 | 10.66669 | 28254 ft | 231 kts | 15° |
| 2026-04-20 16:09 | 47.13587 | 10.68038 | 28454 ft | 240 kts | 22° |
| 2026-04-20 16:09 | 47.14833 | 10.69766 | 28787 ft | 250 kts | 31° |
| 2026-04-20 16:09 | 47.16034 | 10.71639 | 29026 ft | 255 kts | 31° |
| 2026-04-20 16:10 | 47.17311 | 10.73527 | 29029 ft | 265 kts | 30° |
| 2026-04-20 16:10 | 47.18646 | 10.75453 | 29037 ft | 273 kts | 30° |
| 2026-04-20 16:10 | 47.20020 | 10.77449 | 29036 ft | 283 kts | 31° |
| 2026-04-20 16:10 | 47.21436 | 10.79535 | 29043 ft | 292 kts | 31° |
| 2026-04-20 16:11 | 47.22893 | 10.81679 | 29032 ft | 300 kts | 32° |
| 2026-04-20 16:11 | 47.24379 | 10.83859 | 29024 ft | 302 kts | 32° |
| 2026-04-20 16:11 | 47.27346 | 10.88223 | 29031 ft | 303 kts | 32° |
| 2026-04-20 16:12 | 47.30351 | 10.92634 | 29038 ft | 309 kts | 33° |
| 2026-04-20 16:12 | 47.33420 | 10.97163 | 29038 ft | 315 kts | 33° |
| 2026-04-20 16:13 | 47.36531 | 11.01753 | 29032 ft | 322 kts | 34° |
| 2026-04-20 16:13 | 47.39720 | 11.06472 | 29010 ft | 324 kts | 34° |
| 2026-04-20 16:14 | 47.42924 | 11.11210 | 29029 ft | 329 kts | 34° |
| 2026-04-20 16:14 | 47.46175 | 11.16046 | 29030 ft | 334 kts | 34° |
| 2026-04-20 16:15 | 47.49462 | 11.20933 | 29029 ft | 335 kts | 34° |
| 2026-04-20 16:15 | 47.51091 | 11.23354 | 28838 ft | 340 kts | 35° |
| 2026-04-20 16:15 | 47.52788 | 11.25872 | 28344 ft | 347 kts | 35° |
| 2026-04-20 16:16 | 47.54489 | 11.28419 | 27858 ft | 349 kts | 35° |
| 2026-04-20 16:16 | 47.56197 | 11.30976 | 27384 ft | 349 kts | 35° |
| 2026-04-20 16:16 | 47.57911 | 11.33540 | 26919 ft | 350 kts | 35° |
| 2026-04-20 16:16 | 47.59629 | 11.36106 | 26451 ft | 351 kts | 35° |
| 2026-04-20 16:17 | 47.61335 | 11.38721 | 26017 ft | 358 kts | 39° |
| 2026-04-20 16:17 | 47.62620 | 11.42006 | 25569 ft | 379 kts | 61° |
| 2026-04-20 16:17 | 47.63417 | 11.45759 | 25140 ft | 383 kts | 67° |
| 2026-04-20 16:17 | 47.64163 | 11.49561 | 24708 ft | 384 kts | 67° |
| 2026-04-20 16:18 | 47.64914 | 11.53363 | 24285 ft | 385 kts | 65° |
| 2026-04-20 16:18 | 47.65731 | 11.57151 | 23816 ft | 386 kts | 65° |
| 2026-04-20 16:18 | 47.66533 | 11.60970 | 23307 ft | 388 kts | 66° |
| 2026-04-20 16:18 | 47.67294 | 11.64811 | 22749 ft | 387 kts | 67° |
| 2026-04-20 16:19 | 47.68050 | 11.68589 | 22218 ft | 387 kts | 67° |
| 2026-04-20 16:19 | 47.68831 | 11.72400 | 21680 ft | 385 kts | 67° |
| 2026-04-20 16:19 | 47.69606 | 11.76202 | 21153 ft | 383 kts | 67° |
| 2026-04-20 16:19 | 47.70350 | 11.79999 | 20650 ft | 384 kts | 70° |
| 2026-04-20 16:20 | 47.71029 | 11.83830 | 20138 ft | 382 kts | 69° |
| 2026-04-20 16:20 | 47.71778 | 11.87605 | 19650 ft | 380 kts | 68° |
| 2026-04-20 16:20 | 47.72520 | 11.91364 | 19160 ft | 379 kts | 69° |
| 2026-04-20 16:20 | 47.73193 | 11.95149 | 18679 ft | 380 kts | 73° |
| 2026-04-20 16:21 | 47.73705 | 11.98997 | 18186 ft | 379 kts | 75° |
| 2026-04-20 16:21 | 47.74236 | 12.02831 | 17633 ft | 376 kts | 74° |
| 2026-04-20 16:21 | 47.74775 | 12.06595 | 17091 ft | 369 kts | 74° |
| 2026-04-20 16:21 | 47.75272 | 12.10237 | 16556 ft | 346 kts | 76° |
| 2026-04-20 16:22 | 47.75732 | 12.13639 | 16025 ft | 326 kts | 74° |
| 2026-04-20 16:22 | 47.76226 | 12.16851 | 15505 ft | 313 kts | 73° |
| 2026-04-20 16:22 | 47.76677 | 12.19962 | 14998 ft | 304 kts | 75° |
| 2026-04-20 16:22 | 47.77084 | 12.22969 | 14508 ft | 297 kts | 76° |
| 2026-04-20 16:23 | 47.77488 | 12.25958 | 14018 ft | 293 kts | 76° |
| 2026-04-20 16:23 | 47.77896 | 12.28899 | 13507 ft | 287 kts | 76° |
| 2026-04-20 16:23 | 47.78277 | 12.31728 | 13045 ft | 270 kts | 76° |
| 2026-04-20 16:23 | 47.78651 | 12.34405 | 12615 ft | 260 kts | 76° |
| 2026-04-20 16:24 | 47.79038 | 12.37072 | 12194 ft | 269 kts | 76° |
| 2026-04-20 16:24 | 47.79423 | 12.39844 | 11789 ft | 277 kts | 77° |
| 2026-04-20 16:24 | 47.79793 | 12.42689 | 11408 ft | 282 kts | 77° |
| 2026-04-20 16:24 | 47.80174 | 12.45558 | 11029 ft | 283 kts | 77° |
| 2026-04-20 16:25 | 47.80567 | 12.48424 | 10656 ft | 283 kts | 77° |
| 2026-04-20 16:25 | 47.80959 | 12.51286 | 10286 ft | 282 kts | 77° |
| 2026-04-20 16:25 | 47.81345 | 12.54147 | 9912 ft | 281 kts | 77° |
| 2026-04-20 16:25 | 47.81729 | 12.56992 | 9508 ft | 279 kts | 77° |
| 2026-04-20 16:26 | 47.82421 | 12.59630 | 9063 ft | 272 kts | 53° |
| 2026-04-20 16:26 | 47.83557 | 12.61858 | 8636 ft | 268 kts | 48° |
| 2026-04-20 16:26 | 47.84718 | 12.64008 | 8218 ft | 265 kts | 49° |
| 2026-04-20 16:26 | 47.85795 | 12.66218 | 7811 ft | 261 kts | 53° |
| 2026-04-20 16:27 | 47.86793 | 12.68428 | 7399 ft | 253 kts | 53° |
| 2026-04-20 16:27 | 47.87780 | 12.70559 | 6994 ft | 246 kts | 56° |
| 2026-04-20 16:27 | 47.88342 | 12.72873 | 6607 ft | 237 kts | 75° |
| 2026-04-20 16:27 | 47.88691 | 12.75234 | 6196 ft | 230 kts | 76° |
| 2026-04-20 16:28 | 47.88850 | 12.77506 | 5787 ft | 209 kts | 88° |
| 2026-04-20 16:28 | 47.88836 | 12.79592 | 5368 ft | 195 kts | 89° |
| 2026-04-20 16:28 | 47.88656 | 12.81572 | 4958 ft | 192 kts | 105° |
| 2026-04-20 16:28 | 47.88243 | 12.83439 | 4540 ft | 188 kts | 111° |
| 2026-04-20 16:29 | 47.87655 | 12.85142 | 4126 ft | 182 kts | 118° |
| 2026-04-20 16:29 | 47.87056 | 12.86770 | 3712 ft | 177 kts | 118° |
| 2026-04-20 16:29 | 47.86473 | 12.88375 | 3316 ft | 174 kts | 118° |
| 2026-04-20 16:29 | 47.85885 | 12.89928 | 3056 ft | 173 kts | 118° |
| 2026-04-20 16:30 | 47.85299 | 12.91484 | 2862 ft | 171 kts | 118° |
| 2026-04-20 16:30 | 47.84750 | 12.92994 | 2780 ft | 168 kts | 117° |
| 2026-04-20 16:30 | 47.84210 | 12.94426 | 2616 ft | 151 kts | 120° |
| 2026-04-20 16:30 | 47.83653 | 12.95723 | 2376 ft | 147 kts | 124° |
| 2026-04-20 16:31 | 47.83047 | 12.96873 | 2248 ft | 135 kts | 128° |
| 2026-04-20 16:31 | 47.82425 | 12.97880 | 2055 ft | 122 kts | 135° |
| 2026-04-20 16:31 | 47.81855 | 12.98598 | 1873 ft | 99 kts | 140° |
| 2026-04-20 16:31 | 47.81286 | 12.99140 | 1689 ft | 96 kts | 150° |
| 2026-04-20 16:32 | 47.80660 | 12.99563 | 1539 ft | 99 kts | 160° |
| 2026-04-20 16:32 | 47.80028 | 12.99957 | 1416 ft | 91 kts | 158° |
| 2026-04-20 16:32 | 47.79573 | 13.00238 | 1417 ft | 47 kts | 156° |
| 2026-04-20 16:32 | 47.79435 | 13.00308 | 1418 ft | 15 kts | 211° |
| 2026-04-20 16:33 | 47.79393 | 13.00197 | 1415 ft | 9 kts | 247° |
| 2026-04-20 16:33 | 47.79382 | 13.00118 | 1415 ft | 8 kts | 296° |
| 2026-04-20 16:33 | 47.79448 | 13.00055 | 1415 ft | 15 kts | 336° |
| 2026-04-20 16:33 | 47.79538 | 13.00000 | 1415 ft | 8 kts | 338° |
| 2026-04-20 16:34 | 47.79554 | 12.99928 | 1415 ft | 11 kts | 244° |
| 2026-04-20 16:34 | 47.79523 | 12.99859 | 1415 ft | 8 kts | 194° |
| 2026-04-20 16:34 | 47.79503 | 12.99811 | 1415 ft | 4 kts | 244° |
| 2026-04-20 16:34 | 47.79503 | 12.99772 | 1415 ft | 5 kts | 339° |
| 2026-04-20 16:35 | 47.79510 | 12.99767 | 1415 ft | 0 kts | 337° |